createdAt,value
2023-07-18T00:00:14.193Z,19.46
2023-07-18T00:00:28.801Z,19.47
2023-07-18T00:00:41.734Z,19.47
2023-07-18T00:00:53.760Z,19.46
2023-07-18T00:01:05.849Z,19.47
2023-07-18T00:01:18.094Z,19.47
2023-07-18T00:01:30.640Z,19.44
2023-07-18T00:01:43.058Z,19.44
2023-07-18T00:01:57.214Z,19.44
2023-07-18T00:02:09.340Z,19.45
2023-07-18T00:02:21.517Z,19.45
2023-07-18T00:02:35.049Z,19.40
2023-07-18T00:02:47.248Z,19.38
2023-07-18T00:03:00.095Z,19.30
2023-07-18T00:03:14.028Z,19.30
2023-07-18T00:03:26.135Z,19.32
2023-07-18T00:03:38.138Z,19.35
2023-07-18T00:03:50.146Z,19.31
2023-07-18T00:04:02.180Z,19.30
2023-07-18T00:04:14.404Z,19.30
2023-07-18T00:04:28.634Z,19.30
2023-07-18T00:04:40.906Z,19.30
2023-07-18T00:04:53.560Z,19.27
2023-07-18T00:05:06.088Z,19.24
2023-07-18T00:05:18.861Z,19.20
2023-07-18T00:05:31.488Z,19.22
2023-07-18T00:05:43.462Z,19.26
2023-07-18T00:05:56.110Z,19.27
2023-07-18T00:06:09.316Z,19.32
2023-07-18T00:06:22.328Z,19.34
2023-07-18T00:06:34.864Z,19.36
2023-07-18T00:06:46.986Z,19.37
2023-07-18T00:06:59.483Z,19.38
2023-07-18T00:07:11.443Z,19.38
2023-07-18T00:07:23.426Z,19.39
2023-07-18T00:07:35.558Z,19.39
2023-07-18T00:07:47.549Z,19.39
2023-07-18T00:07:59.505Z,19.40
2023-07-18T00:08:11.480Z,19.40
2023-07-18T00:08:23.552Z,19.38
2023-07-18T00:08:35.727Z,19.38
2023-07-18T00:08:47.684Z,19.38
2023-07-18T00:08:59.699Z,19.36
2023-07-18T00:09:12.384Z,19.36
2023-07-18T00:09:24.313Z,19.35
2023-07-18T00:09:39.421Z,19.35
2023-07-18T00:09:51.658Z,19.33
2023-07-18T00:10:04.476Z,19.32
2023-07-18T00:10:20.314Z,19.29
2023-07-18T00:10:32.397Z,19.29
2023-07-18T00:10:44.374Z,19.29
2023-07-18T00:10:56.345Z,19.27
2023-07-18T00:11:08.292Z,19.27
2023-07-18T00:11:22.844Z,19.26
2023-07-18T00:11:34.841Z,19.25
2023-07-18T00:11:47.457Z,19.24
2023-07-18T00:12:00.585Z,19.25
2023-07-18T00:12:12.680Z,19.24
2023-07-18T00:12:24.701Z,19.24
2023-07-18T00:12:37.370Z,19.25
2023-07-18T00:12:50.380Z,19.25
2023-07-18T00:13:04.011Z,19.25
2023-07-18T00:13:15.968Z,19.25
2023-07-18T00:13:27.899Z,19.24
2023-07-18T00:13:39.874Z,19.25
2023-07-18T00:13:51.894Z,19.24
2023-07-18T00:14:03.934Z,19.26
2023-07-18T00:14:16.364Z,19.25
2023-07-18T00:14:30.848Z,19.24
2023-07-18T00:14:42.900Z,19.21
2023-07-18T00:14:55.014Z,19.18
2023-07-18T00:15:08.283Z,19.19
2023-07-18T00:15:20.275Z,19.14
2023-07-18T00:15:32.988Z,19.14
2023-07-18T00:15:45.952Z,19.14
2023-07-18T00:15:57.988Z,19.12
2023-07-18T00:16:10.272Z,19.13
2023-07-18T00:16:22.299Z,19.14
2023-07-18T00:16:34.569Z,19.13
2023-07-18T00:16:46.717Z,19.13
2023-07-18T00:16:58.734Z,19.14
2023-07-18T00:17:10.719Z,19.14
2023-07-18T00:17:22.746Z,19.16
2023-07-18T00:17:35.250Z,19.18
2023-07-18T00:17:47.441Z,19.16
2023-07-18T00:18:00.363Z,19.16
2023-07-18T00:18:12.374Z,19.16
2023-07-18T00:18:24.427Z,19.15
2023-07-18T00:18:36.380Z,19.18
2023-07-18T00:18:49.027Z,19.18
2023-07-18T00:19:01.022Z,19.18
2023-07-18T00:19:13.432Z,19.19
2023-07-18T00:19:25.648Z,19.17
2023-07-18T00:19:38.640Z,19.14
2023-07-18T00:19:51.282Z,19.13
2023-07-18T00:20:13.584Z,19.14
2023-07-18T00:20:26.863Z,19.13
2023-07-18T00:20:42.450Z,19.08
2023-07-18T00:20:54.433Z,19.05
2023-07-18T00:21:06.650Z,19.06
2023-07-18T00:21:18.849Z,19.05
2023-07-18T00:21:31.123Z,18.99
2023-07-18T00:21:43.097Z,18.93
2023-07-18T00:21:55.671Z,18.92
2023-07-18T00:22:08.874Z,18.93
2023-07-18T00:22:21.140Z,18.93
2023-07-18T00:22:33.144Z,18.93
2023-07-18T00:22:49.454Z,18.79
2023-07-18T00:23:01.719Z,18.78
2023-07-18T00:23:13.852Z,18.74
2023-07-18T00:23:25.864Z,18.71
2023-07-18T00:23:37.816Z,18.71
2023-07-18T00:23:50.692Z,18.70
2023-07-18T00:24:03.507Z,18.69
2023-07-18T00:24:16.135Z,18.56
2023-07-18T00:24:30.016Z,18.61
2023-07-18T00:24:41.999Z,18.60
2023-07-18T00:24:54.003Z,18.59
2023-07-18T00:25:06.628Z,18.63
2023-07-18T00:25:20.735Z,18.65
2023-07-18T00:25:33.081Z,18.68
2023-07-18T00:25:45.123Z,18.72
2023-07-18T00:25:57.250Z,18.73
2023-07-18T00:26:09.742Z,18.75
2023-07-18T00:26:21.998Z,18.77
2023-07-18T00:26:34.570Z,18.79
2023-07-18T00:26:46.622Z,18.81
2023-07-18T00:26:58.629Z,18.84
2023-07-18T00:27:10.610Z,18.81
2023-07-18T00:27:22.609Z,18.82
2023-07-18T00:27:34.888Z,18.83
2023-07-18T00:27:48.345Z,18.80
2023-07-18T00:28:00.340Z,18.80
2023-07-18T00:28:12.281Z,18.79
2023-07-18T00:28:24.297Z,18.81
2023-07-18T00:28:36.778Z,18.81
2023-07-18T00:28:48.742Z,18.83
2023-07-18T00:29:00.790Z,18.83
2023-07-18T00:29:12.752Z,18.81
2023-07-18T00:29:24.776Z,18.82
2023-07-18T00:29:36.726Z,18.83
2023-07-18T00:29:48.653Z,18.84
2023-07-18T00:30:00.619Z,18.85
2023-07-18T00:30:16.211Z,18.85
2023-07-18T00:30:28.312Z,18.84
2023-07-18T00:30:40.294Z,18.83
2023-07-18T00:30:52.478Z,18.83
2023-07-18T00:31:04.530Z,18.85
2023-07-18T00:31:16.739Z,18.86
2023-07-18T00:31:28.949Z,18.88
2023-07-18T00:31:41.316Z,18.89
2023-07-18T00:31:53.446Z,18.89
2023-07-18T00:32:05.854Z,18.88
2023-07-18T00:32:17.881Z,18.89
2023-07-18T00:32:29.975Z,18.86
2023-07-18T00:32:43.402Z,18.87
2023-07-18T00:32:56.434Z,18.85
2023-07-18T00:33:08.547Z,18.81
2023-07-18T00:33:20.664Z,18.80
2023-07-18T00:33:32.647Z,18.77
2023-07-18T00:33:44.630Z,18.79
2023-07-18T00:33:56.614Z,18.79
2023-07-18T00:34:08.565Z,18.78
2023-07-18T00:34:20.512Z,18.80
2023-07-18T00:34:32.425Z,18.80
2023-07-18T00:34:45.376Z,18.75
2023-07-18T00:34:57.492Z,18.71
2023-07-18T00:35:10.054Z,18.68
2023-07-18T00:35:22.188Z,18.64
2023-07-18T00:35:35.570Z,18.64
2023-07-18T00:35:47.606Z,18.66
2023-07-18T00:35:59.647Z,18.65
2023-07-18T00:36:11.699Z,18.64
2023-07-18T00:36:23.677Z,18.64
2023-07-18T00:36:35.624Z,18.64
2023-07-18T00:36:47.545Z,18.66
2023-07-18T00:36:59.518Z,18.69
2023-07-18T00:37:11.751Z,18.69
2023-07-18T00:37:24.333Z,18.71
2023-07-18T00:37:36.304Z,18.70
2023-07-18T00:37:48.270Z,18.68
2023-07-18T00:38:00.903Z,18.67
2023-07-18T00:38:12.886Z,18.69
2023-07-18T00:38:24.889Z,18.68
2023-07-18T00:38:37.011Z,18.65
2023-07-18T00:38:50.102Z,18.65
2023-07-18T00:39:02.293Z,18.65
2023-07-18T00:39:14.352Z,18.67
2023-07-18T00:39:26.338Z,18.69
2023-07-18T00:39:38.309Z,18.68
2023-07-18T00:39:50.282Z,18.67
2023-07-18T00:40:03.797Z,18.69
2023-07-18T00:40:16.489Z,18.70
2023-07-18T00:40:28.510Z,18.70
2023-07-18T00:40:42.067Z,18.74
2023-07-18T00:40:54.181Z,18.76
2023-07-18T00:41:06.782Z,18.76
2023-07-18T00:41:19.043Z,18.75
2023-07-18T00:41:31.208Z,18.76
2023-07-18T00:41:43.635Z,18.72
2023-07-18T00:41:55.690Z,18.71
2023-07-18T00:42:07.847Z,18.69
2023-07-18T00:42:20.424Z,18.67
2023-07-18T00:42:32.474Z,18.66
2023-07-18T00:42:46.503Z,18.65
2023-07-18T00:42:58.605Z,18.63
2023-07-18T00:43:17.017Z,18.56
2023-07-18T00:43:33.860Z,18.56
2023-07-18T00:43:45.840Z,18.58
2023-07-18T00:43:57.813Z,18.58
2023-07-18T00:44:10.514Z,18.58
2023-07-18T00:44:22.561Z,18.52
2023-07-18T00:44:34.648Z,18.54
2023-07-18T00:44:50.435Z,18.53
2023-07-18T00:45:02.513Z,18.52
2023-07-18T00:45:14.989Z,18.51
2023-07-18T00:45:27.510Z,18.53
2023-07-18T00:45:40.128Z,18.54
2023-07-18T00:45:52.218Z,18.56
2023-07-18T00:46:06.086Z,18.56
2023-07-18T00:46:19.239Z,18.56
2023-07-18T00:46:32.272Z,18.59
2023-07-18T00:46:44.665Z,18.57
2023-07-18T00:46:56.731Z,18.58
2023-07-18T00:47:09.024Z,18.58
2023-07-18T00:47:23.260Z,18.59
2023-07-18T00:47:39.039Z,18.59
2023-07-18T00:47:52.842Z,18.60
2023-07-18T00:48:05.338Z,18.62
2023-07-18T00:48:18.657Z,18.59
2023-07-18T00:48:33.460Z,18.58
2023-07-18T00:48:45.731Z,18.58
2023-07-18T00:48:58.493Z,18.60
2023-07-18T00:49:10.759Z,18.61
2023-07-18T00:49:23.727Z,18.62
2023-07-18T00:49:36.424Z,18.63
2023-07-18T00:49:48.858Z,18.62
2023-07-18T00:50:00.973Z,18.63
2023-07-18T00:50:17.730Z,18.60
2023-07-18T00:50:29.801Z,18.59
2023-07-18T00:50:42.307Z,18.61
2023-07-18T00:50:54.700Z,18.54
2023-07-18T00:51:08.315Z,18.53
2023-07-18T00:51:20.710Z,18.51
2023-07-18T00:51:33.186Z,18.53
2023-07-18T00:51:45.531Z,18.53
2023-07-18T00:51:57.712Z,18.56
2023-07-18T00:52:10.136Z,18.56
2023-07-18T00:52:23.082Z,18.56
2023-07-18T00:52:37.359Z,18.59
2023-07-18T00:52:51.447Z,18.62
2023-07-18T00:53:03.649Z,18.62
2023-07-18T00:53:15.754Z,18.64
2023-07-18T00:53:28.687Z,18.66
2023-07-18T00:53:41.419Z,18.63
2023-07-18T00:53:54.128Z,18.66
2023-07-18T00:54:07.863Z,18.67
2023-07-18T00:54:22.281Z,18.70
2023-07-18T00:54:35.004Z,18.69
2023-07-18T00:54:47.065Z,18.67
2023-07-18T00:54:59.041Z,18.67
2023-07-18T00:55:12.281Z,18.65
2023-07-18T00:55:24.409Z,18.66
2023-07-18T00:55:37.516Z,18.65
2023-07-18T00:55:50.952Z,18.60
2023-07-18T00:56:03.177Z,18.62
2023-07-18T00:56:15.296Z,18.63
2023-07-18T00:56:27.861Z,18.61
2023-07-18T00:56:39.835Z,18.56
2023-07-18T00:56:51.946Z,18.47
2023-07-18T00:57:04.170Z,18.49
2023-07-18T00:57:16.191Z,18.49
2023-07-18T00:57:28.160Z,18.52
2023-07-18T00:57:41.277Z,18.53
2023-07-18T00:57:54.825Z,18.57
2023-07-18T00:58:06.841Z,18.59
2023-07-18T00:58:18.830Z,18.61
2023-07-18T00:58:31.386Z,18.62
2023-07-18T00:58:44.074Z,18.61
2023-07-18T00:58:56.324Z,18.60
2023-07-18T00:59:09.836Z,18.59
2023-07-18T00:59:24.149Z,18.59
2023-07-18T00:59:38.221Z,18.60
2023-07-18T00:59:50.595Z,18.62
2023-07-18T01:00:03.457Z,18.59
2023-07-18T01:00:17.960Z,18.60
2023-07-18T01:00:30.075Z,18.57
2023-07-18T01:00:42.510Z,18.54
2023-07-18T01:00:55.580Z,18.53
2023-07-18T01:01:08.178Z,18.50
2023-07-18T01:01:20.668Z,18.48
2023-07-18T01:01:33.943Z,18.48
2023-07-18T01:01:46.173Z,18.47
2023-07-18T01:01:58.480Z,18.46
2023-07-18T01:02:10.575Z,18.46
2023-07-18T01:02:22.894Z,18.47
2023-07-18T01:02:35.033Z,18.44
2023-07-18T01:02:47.516Z,18.47
2023-07-18T01:02:59.719Z,18.46
2023-07-18T01:03:12.055Z,18.44
2023-07-18T01:03:24.201Z,18.41
2023-07-18T01:03:39.836Z,18.38
2023-07-18T01:03:52.015Z,18.41
2023-07-18T01:04:04.183Z,18.41
2023-07-18T01:04:16.199Z,18.41
2023-07-18T01:04:28.187Z,18.42
2023-07-18T01:04:42.277Z,18.46
2023-07-18T01:04:54.254Z,18.49
2023-07-18T01:05:07.923Z,18.50
2023-07-18T01:05:20.652Z,18.48
2023-07-18T01:05:34.821Z,18.50
2023-07-18T01:05:46.871Z,18.51
2023-07-18T01:05:59.124Z,18.53
2023-07-18T01:06:12.696Z,18.54
2023-07-18T01:06:26.009Z,18.56
2023-07-18T01:06:38.284Z,18.54
2023-07-18T01:06:51.045Z,18.53
2023-07-18T01:07:03.258Z,18.54
2023-07-18T01:07:16.834Z,18.47
2023-07-18T01:07:28.964Z,18.45
2023-07-18T01:07:41.029Z,18.45
2023-07-18T01:07:53.086Z,18.45
2023-07-18T01:08:05.711Z,18.47
2023-07-18T01:08:17.696Z,18.47
2023-07-18T01:08:29.827Z,18.47
2023-07-18T01:08:41.861Z,18.49
2023-07-18T01:08:53.992Z,18.51
2023-07-18T01:09:06.450Z,18.50
2023-07-18T01:09:18.432Z,18.51
2023-07-18T01:09:31.532Z,18.52
2023-07-18T01:09:45.934Z,18.52
2023-07-18T01:10:27.053Z,18.53
2023-07-18T01:10:39.441Z,18.55
2023-07-18T01:10:51.468Z,18.55
2023-07-18T01:11:05.496Z,18.55
2023-07-18T01:11:17.759Z,18.57
2023-07-18T01:11:30.045Z,18.55
2023-07-18T01:11:42.584Z,18.56
2023-07-18T01:11:56.469Z,18.58
2023-07-18T01:12:08.919Z,18.59
2023-07-18T01:12:20.905Z,18.58
2023-07-18T01:12:32.928Z,18.59
2023-07-18T01:12:45.965Z,18.59
2023-07-18T01:12:59.845Z,18.60
2023-07-18T01:13:13.028Z,18.58
2023-07-18T01:13:25.087Z,18.61
2023-07-18T01:13:37.414Z,18.58
2023-07-18T01:13:49.400Z,18.60
2023-07-18T01:14:01.360Z,18.58
2023-07-18T01:14:13.352Z,18.59
2023-07-18T01:14:26.523Z,18.58
2023-07-18T01:14:38.469Z,18.61
2023-07-18T01:14:50.491Z,18.60
2023-07-18T01:15:02.580Z,18.62
2023-07-18T01:15:14.695Z,18.61
2023-07-18T01:15:30.884Z,18.58
2023-07-18T01:15:44.339Z,18.52
2023-07-18T01:15:56.372Z,18.53
2023-07-18T01:16:08.780Z,18.56
2023-07-18T01:16:20.773Z,18.55
2023-07-18T01:16:32.824Z,18.57
2023-07-18T01:16:44.800Z,18.57
2023-07-18T01:16:56.922Z,18.57
2023-07-18T01:17:10.655Z,18.55
2023-07-18T01:17:22.818Z,18.50
2023-07-18T01:17:35.104Z,18.47
2023-07-18T01:17:48.263Z,18.47
2023-07-18T01:18:03.449Z,18.43
2023-07-18T01:18:15.897Z,18.46
2023-07-18T01:18:27.905Z,18.49
2023-07-18T01:18:41.482Z,18.49
2023-07-18T01:18:56.491Z,18.51
2023-07-18T01:19:08.774Z,18.52
2023-07-18T01:19:21.045Z,18.51
2023-07-18T01:19:33.059Z,18.47
2023-07-18T01:19:45.068Z,18.46
2023-07-18T01:19:57.421Z,18.47
2023-07-18T01:20:14.192Z,18.46
2023-07-18T01:20:29.033Z,18.44
2023-07-18T01:20:45.702Z,18.44
2023-07-18T01:20:58.282Z,18.44
2023-07-18T01:21:18.385Z,18.43
2023-07-18T01:21:30.968Z,18.41
2023-07-18T01:21:43.356Z,18.42
2023-07-18T01:21:55.357Z,18.43
2023-07-18T01:22:09.614Z,18.44
2023-07-18T01:22:21.759Z,18.42
2023-07-18T01:22:33.877Z,18.41
2023-07-18T01:22:47.534Z,18.37
2023-07-18T01:23:01.790Z,18.39
2023-07-18T01:23:15.139Z,18.41
2023-07-18T01:23:28.160Z,18.38
2023-07-18T01:23:40.181Z,18.34
2023-07-18T01:23:52.136Z,18.36
2023-07-18T01:24:04.470Z,18.35
2023-07-18T01:24:16.418Z,18.36
2023-07-18T01:24:28.425Z,18.38
2023-07-18T01:24:40.415Z,18.36
2023-07-18T01:24:52.439Z,18.36
2023-07-18T01:25:04.795Z,18.40
2023-07-18T01:25:17.907Z,18.41
2023-07-18T01:25:31.118Z,18.44
2023-07-18T01:25:43.662Z,18.45
2023-07-18T01:25:56.879Z,18.47
2023-07-18T01:26:08.887Z,18.48
2023-07-18T01:26:20.826Z,18.47
2023-07-18T01:26:32.860Z,18.49
2023-07-18T01:26:44.922Z,18.48
2023-07-18T01:26:58.073Z,18.49
2023-07-18T01:27:10.168Z,18.50
2023-07-18T01:27:22.134Z,18.50
2023-07-18T01:27:38.049Z,18.50
2023-07-18T01:27:52.004Z,18.49
2023-07-18T01:28:04.569Z,18.48
2023-07-18T01:28:16.558Z,18.49
2023-07-18T01:28:28.761Z,18.45
2023-07-18T01:28:41.241Z,18.44
2023-07-18T01:28:53.252Z,18.40
2023-07-18T01:29:05.365Z,18.42
2023-07-18T01:29:17.355Z,18.45
2023-07-18T01:29:29.379Z,18.45
2023-07-18T01:29:41.391Z,18.43
2023-07-18T01:29:53.833Z,18.45
2023-07-18T01:30:06.771Z,18.47
2023-07-18T01:30:21.658Z,18.49
2023-07-18T01:30:33.639Z,18.50
2023-07-18T01:30:46.138Z,18.52
2023-07-18T01:30:58.144Z,18.51
2023-07-18T01:31:10.246Z,18.52
2023-07-18T01:31:22.524Z,18.53
2023-07-18T01:31:34.639Z,18.52
2023-07-18T01:31:46.727Z,18.53
2023-07-18T01:31:58.758Z,18.51
2023-07-18T01:32:10.756Z,18.49
2023-07-18T01:32:22.829Z,18.47
2023-07-18T01:32:37.490Z,18.49
2023-07-18T01:32:50.382Z,18.51
2023-07-18T01:33:02.558Z,18.52
2023-07-18T01:33:14.531Z,18.54
2023-07-18T01:33:28.335Z,18.53
2023-07-18T01:33:43.413Z,18.54
2023-07-18T01:33:55.435Z,18.52
2023-07-18T01:34:07.486Z,18.51
2023-07-18T01:34:19.496Z,18.50
2023-07-18T01:34:31.435Z,18.50
2023-07-18T01:34:43.367Z,18.50
2023-07-18T01:34:55.302Z,18.50
2023-07-18T01:35:09.232Z,18.44
2023-07-18T01:35:24.385Z,18.42
2023-07-18T01:35:36.361Z,18.47
2023-07-18T01:35:48.325Z,18.45
2023-07-18T01:36:01.023Z,18.45
2023-07-18T01:36:13.023Z,18.43
2023-07-18T01:36:29.546Z,18.44
2023-07-18T01:36:41.858Z,18.41
2023-07-18T01:36:53.967Z,18.42
2023-07-18T01:37:06.191Z,18.42
2023-07-18T01:37:18.143Z,18.40
2023-07-18T01:37:30.095Z,18.39
2023-07-18T01:37:46.039Z,18.36
2023-07-18T01:37:58.615Z,18.38
2023-07-18T01:38:10.751Z,18.38
2023-07-18T01:38:22.753Z,18.36
2023-07-18T01:38:36.473Z,18.36
2023-07-18T01:38:48.484Z,18.36
2023-07-18T01:39:00.698Z,18.38
2023-07-18T01:39:12.720Z,18.40
2023-07-18T01:39:24.874Z,18.41
2023-07-18T01:39:36.851Z,18.43
2023-07-18T01:39:48.829Z,18.42
2023-07-18T01:40:01.192Z,18.43
2023-07-18T01:40:16.690Z,18.43
2023-07-18T01:40:28.780Z,18.42
2023-07-18T01:40:40.911Z,18.42
2023-07-18T01:40:52.963Z,18.41
2023-07-18T01:41:05.010Z,18.41
2023-07-18T01:41:17.177Z,18.41
2023-07-18T01:41:30.848Z,18.42
2023-07-18T01:41:42.831Z,18.40
2023-07-18T01:41:54.898Z,18.34
2023-07-18T01:42:07.303Z,18.30
2023-07-18T01:42:20.296Z,18.29
2023-07-18T01:42:33.631Z,18.28
2023-07-18T01:42:45.602Z,18.31
2023-07-18T01:42:58.761Z,18.28
2023-07-18T01:43:10.777Z,18.29
2023-07-18T01:43:23.652Z,18.24
2023-07-18T01:43:38.544Z,18.23
2023-07-18T01:43:50.496Z,18.25
2023-07-18T01:44:02.431Z,18.25
2023-07-18T01:44:14.409Z,18.25
2023-07-18T01:44:26.492Z,18.24
2023-07-18T01:44:38.558Z,18.26
2023-07-18T01:44:50.598Z,18.27
2023-07-18T01:45:04.292Z,18.26
2023-07-18T01:45:16.486Z,18.25
2023-07-18T01:45:32.054Z,18.25
2023-07-18T01:45:44.032Z,18.26
2023-07-18T01:46:00.372Z,18.24
2023-07-18T01:46:12.496Z,18.23
2023-07-18T01:46:25.926Z,18.23
2023-07-18T01:46:37.926Z,18.21
2023-07-18T01:46:49.953Z,18.22
2023-07-18T01:47:03.764Z,18.22
2023-07-18T01:47:15.868Z,18.24
2023-07-18T01:47:28.056Z,18.27
2023-07-18T01:47:41.325Z,18.28
2023-07-18T01:47:53.764Z,18.28
2023-07-18T01:48:05.993Z,18.25
2023-07-18T01:48:19.240Z,18.27
2023-07-18T01:48:31.302Z,18.29
2023-07-18T01:48:43.349Z,18.29
2023-07-18T01:48:55.296Z,18.27
2023-07-18T01:49:07.387Z,18.30
2023-07-18T01:49:19.344Z,18.31
2023-07-18T01:49:32.266Z,18.31
2023-07-18T01:49:44.260Z,18.32
2023-07-18T01:49:56.197Z,18.29
2023-07-18T01:50:08.789Z,18.28
2023-07-18T01:50:20.911Z,18.30
2023-07-18T01:50:33.439Z,18.29
2023-07-18T01:50:45.447Z,18.29
2023-07-18T01:50:58.087Z,18.27
2023-07-18T01:51:10.119Z,18.30
2023-07-18T01:51:22.456Z,18.29
2023-07-18T01:51:34.862Z,18.27
2023-07-18T01:51:46.848Z,18.26
2023-07-18T01:52:01.246Z,18.29
2023-07-18T01:52:13.257Z,18.28
2023-07-18T01:52:27.102Z,18.26
2023-07-18T01:52:39.331Z,18.24
2023-07-18T01:52:51.366Z,18.22
2023-07-18T01:53:03.378Z,18.19
2023-07-18T01:53:15.340Z,18.22
2023-07-18T01:53:27.536Z,18.22
2023-07-18T01:53:39.522Z,18.21
2023-07-18T01:53:51.537Z,18.23
2023-07-18T01:54:05.096Z,18.21
2023-07-18T01:54:17.039Z,18.22
2023-07-18T01:54:30.260Z,18.21
2023-07-18T01:54:42.272Z,18.20
2023-07-18T01:54:59.127Z,18.17
2023-07-18T01:55:11.273Z,18.18
2023-07-18T01:55:23.238Z,18.18
2023-07-18T01:55:35.219Z,18.20
2023-07-18T01:55:47.208Z,18.19
2023-07-18T01:55:59.488Z,18.22
2023-07-18T01:56:11.570Z,18.18
2023-07-18T01:56:23.602Z,18.21
2023-07-18T01:56:35.555Z,18.17
2023-07-18T01:56:47.499Z,18.13
2023-07-18T01:56:59.488Z,18.12
2023-07-18T01:57:11.423Z,18.10
2023-07-18T01:57:24.321Z,18.13
2023-07-18T01:57:38.996Z,18.13
2023-07-18T01:57:51.249Z,18.11
2023-07-18T01:58:03.253Z,18.09
2023-07-18T01:58:15.196Z,18.08
2023-07-18T01:58:27.177Z,18.07
2023-07-18T01:58:39.164Z,18.04
2023-07-18T01:58:51.237Z,18.02
2023-07-18T01:59:03.205Z,18.03
2023-07-18T01:59:15.211Z,18.01
2023-07-18T01:59:27.251Z,17.95
2023-07-18T01:59:39.421Z,17.98
2023-07-18T01:59:51.433Z,17.96
2023-07-18T02:00:04.847Z,17.93
2023-07-18T02:00:22.772Z,17.93
2023-07-18T02:00:36.510Z,17.92
2023-07-18T02:00:48.801Z,17.94
2023-07-18T02:01:04.288Z,17.95
2023-07-18T02:01:16.534Z,17.96
2023-07-18T02:01:30.040Z,17.96
2023-07-18T02:01:42.078Z,17.93
2023-07-18T02:01:54.037Z,17.89
2023-07-18T02:02:07.559Z,17.82
2023-07-18T02:02:20.012Z,17.79
2023-07-18T02:02:32.177Z,17.82
2023-07-18T02:02:46.791Z,17.82
2023-07-18T02:02:58.980Z,17.78
2023-07-18T02:03:13.583Z,17.81
2023-07-18T02:03:25.695Z,17.80
2023-07-18T02:03:38.295Z,17.78
2023-07-18T02:03:50.292Z,17.78
2023-07-18T02:04:02.274Z,17.82
2023-07-18T02:04:15.089Z,17.81
2023-07-18T02:04:27.131Z,17.83
2023-07-18T02:04:39.502Z,17.83
2023-07-18T02:04:51.440Z,17.84
2023-07-18T02:05:05.193Z,17.84
2023-07-18T02:05:20.377Z,17.84
2023-07-18T02:05:33.455Z,17.81
2023-07-18T02:05:45.428Z,17.79
2023-07-18T02:05:57.418Z,17.80
2023-07-18T02:06:11.379Z,17.82
2023-07-18T02:06:26.057Z,17.78
2023-07-18T02:06:38.001Z,17.76
2023-07-18T02:06:49.957Z,17.73
2023-07-18T02:07:01.947Z,17.70
2023-07-18T02:07:13.927Z,17.69
2023-07-18T02:07:26.840Z,17.68
2023-07-18T02:07:38.827Z,17.65
2023-07-18T02:07:51.357Z,17.62
2023-07-18T02:08:03.484Z,17.63
2023-07-18T02:08:15.477Z,17.64
2023-07-18T02:08:27.416Z,17.65
2023-07-18T02:08:39.410Z,17.67
2023-07-18T02:08:52.370Z,17.69
2023-07-18T02:09:05.333Z,17.70
2023-07-18T02:09:17.319Z,17.70
2023-07-18T02:09:29.299Z,17.71
2023-07-18T02:09:41.264Z,17.71
2023-07-18T02:09:53.200Z,17.72
2023-07-18T02:10:06.228Z,17.72
2023-07-18T02:10:22.643Z,17.68
2023-07-18T02:10:34.728Z,17.64
2023-07-18T02:10:46.740Z,17.62
2023-07-18T02:10:58.700Z,17.62
2023-07-18T02:11:10.636Z,17.64
2023-07-18T02:11:22.692Z,17.66
2023-07-18T02:11:34.676Z,17.63
2023-07-18T02:11:46.676Z,17.64
2023-07-18T02:11:58.625Z,17.58
2023-07-18T02:12:10.852Z,17.61
2023-07-18T02:12:22.922Z,17.58
2023-07-18T02:12:34.904Z,17.60
2023-07-18T02:12:51.519Z,17.63
2023-07-18T02:13:04.201Z,17.61
2023-07-18T02:13:16.301Z,17.55
2023-07-18T02:13:28.342Z,17.53
2023-07-18T02:13:40.301Z,17.57
2023-07-18T02:13:52.289Z,17.60
2023-07-18T02:14:05.126Z,17.60
2023-07-18T02:14:20.827Z,17.61
2023-07-18T02:14:32.795Z,17.65
2023-07-18T02:14:44.749Z,17.67
2023-07-18T02:14:56.739Z,17.67
2023-07-18T02:15:09.495Z,17.64
2023-07-18T02:15:22.592Z,17.65
2023-07-18T02:15:34.689Z,17.67
2023-07-18T02:15:46.851Z,17.67
2023-07-18T02:15:58.815Z,17.67
2023-07-18T02:16:10.736Z,17.68
2023-07-18T02:16:22.751Z,17.65
2023-07-18T02:16:34.744Z,17.65
2023-07-18T02:16:46.991Z,17.67
2023-07-18T02:16:59.750Z,17.68
2023-07-18T02:17:11.861Z,17.65
2023-07-18T02:17:24.007Z,17.67
2023-07-18T02:17:36.110Z,17.67
2023-07-18T02:17:48.534Z,17.67
2023-07-18T02:18:00.599Z,17.68
2023-07-18T02:18:12.720Z,17.69
2023-07-18T02:18:24.750Z,17.67
2023-07-18T02:18:36.844Z,17.69
2023-07-18T02:18:48.916Z,17.68
2023-07-18T02:19:02.186Z,17.69
2023-07-18T02:19:14.291Z,17.70
2023-07-18T02:19:26.247Z,17.68
2023-07-18T02:19:38.241Z,17.68
2023-07-18T02:19:50.187Z,17.68
2023-07-18T02:20:07.412Z,17.65
2023-07-18T02:20:19.633Z,17.68
2023-07-18T02:20:31.726Z,17.70
2023-07-18T02:20:43.779Z,17.66
2023-07-18T02:20:55.777Z,17.66
2023-07-18T02:21:07.776Z,17.67
2023-07-18T02:21:19.953Z,17.65
2023-07-18T02:21:32.098Z,17.66
2023-07-18T02:21:44.053Z,17.61
2023-07-18T02:21:56.027Z,17.57
2023-07-18T02:22:08.070Z,17.58
2023-07-18T02:22:22.626Z,17.58
2023-07-18T02:22:35.504Z,17.56
2023-07-18T02:22:48.935Z,17.54
2023-07-18T02:23:01.756Z,17.52
2023-07-18T02:23:13.928Z,17.52
2023-07-18T02:23:25.870Z,17.51
2023-07-18T02:23:37.873Z,17.51
2023-07-18T02:23:49.856Z,17.51
2023-07-18T02:24:01.943Z,17.51
2023-07-18T02:24:13.938Z,17.52
2023-07-18T02:24:25.860Z,17.52
2023-07-18T02:24:38.855Z,17.50
2023-07-18T02:24:50.845Z,17.51
2023-07-18T02:25:03.872Z,17.49
2023-07-18T02:25:18.148Z,17.49
2023-07-18T02:25:30.164Z,17.47
2023-07-18T02:25:42.169Z,17.48
2023-07-18T02:25:54.226Z,17.45
2023-07-18T02:26:06.161Z,17.45
2023-07-18T02:26:18.176Z,17.39
2023-07-18T02:26:30.466Z,17.34
2023-07-18T02:26:42.399Z,17.36
2023-07-18T02:26:55.234Z,17.35
2023-07-18T02:27:07.282Z,17.35
2023-07-18T02:27:20.806Z,17.38
2023-07-18T02:27:34.546Z,17.39
2023-07-18T02:27:46.699Z,17.41
2023-07-18T02:27:58.781Z,17.41
2023-07-18T02:28:11.207Z,17.42
2023-07-18T02:28:23.211Z,17.39
2023-07-18T02:28:35.193Z,17.38
2023-07-18T02:28:47.136Z,17.38
2023-07-18T02:28:59.076Z,17.38
2023-07-18T02:29:11.343Z,17.39
2023-07-18T02:29:23.353Z,17.38
2023-07-18T02:29:35.327Z,17.37
2023-07-18T02:29:47.777Z,17.38
2023-07-18T02:30:01.945Z,17.36
2023-07-18T02:30:14.959Z,17.32
2023-07-18T02:30:26.932Z,17.27
2023-07-18T02:30:39.377Z,17.25
2023-07-18T02:30:53.653Z,17.26
2023-07-18T02:31:05.723Z,17.26
2023-07-18T02:31:18.469Z,17.27
2023-07-18T02:31:30.751Z,17.28
2023-07-18T02:31:43.351Z,17.27
2023-07-18T02:31:55.339Z,17.20
2023-07-18T02:32:07.487Z,17.22
2023-07-18T02:32:19.462Z,17.16
2023-07-18T02:32:31.780Z,17.15
2023-07-18T02:32:44.800Z,17.15
2023-07-18T02:32:58.406Z,17.12
2023-07-18T02:33:11.984Z,17.12
2023-07-18T02:33:24.183Z,17.09
2023-07-18T02:33:36.264Z,17.05
2023-07-18T02:33:48.386Z,17.03
2023-07-18T02:34:00.380Z,17.05
2023-07-18T02:34:12.345Z,17.05
2023-07-18T02:34:26.550Z,17.04
2023-07-18T02:34:39.529Z,17.08
2023-07-18T02:34:51.671Z,17.10
2023-07-18T02:35:03.832Z,17.10
2023-07-18T02:35:19.432Z,17.13
2023-07-18T02:35:32.151Z,17.09
2023-07-18T02:35:49.307Z,17.13
2023-07-18T02:36:01.255Z,17.14
2023-07-18T02:36:13.270Z,17.13
2023-07-18T02:36:25.780Z,17.17
2023-07-18T02:36:37.843Z,17.14
2023-07-18T02:36:50.229Z,17.17
2023-07-18T02:37:02.195Z,17.15
2023-07-18T02:37:14.214Z,17.17
2023-07-18T02:37:26.760Z,17.16
2023-07-18T02:37:38.999Z,17.15
2023-07-18T02:37:51.013Z,17.15
2023-07-18T02:38:03.108Z,17.14
2023-07-18T02:38:15.043Z,17.15
2023-07-18T02:38:27.108Z,17.16
2023-07-18T02:38:39.138Z,17.16
2023-07-18T02:38:51.523Z,17.15
2023-07-18T02:39:04.906Z,17.14
2023-07-18T02:39:16.884Z,17.13
2023-07-18T02:39:31.464Z,17.11
2023-07-18T02:39:45.306Z,17.10
2023-07-18T02:39:57.263Z,17.15
2023-07-18T02:40:10.547Z,17.20
2023-07-18T02:40:23.171Z,17.22
2023-07-18T02:40:35.134Z,17.25
2023-07-18T02:40:47.162Z,17.25
2023-07-18T02:40:59.094Z,17.27
2023-07-18T02:41:11.041Z,17.30
2023-07-18T02:41:23.063Z,17.31
2023-07-18T02:41:35.726Z,17.30
2023-07-18T02:41:47.648Z,17.32
2023-07-18T02:41:59.812Z,17.33
2023-07-18T02:42:12.551Z,17.35
2023-07-18T02:42:24.495Z,17.35
2023-07-18T02:42:37.736Z,17.37
2023-07-18T02:42:49.834Z,17.38
2023-07-18T02:43:01.846Z,17.38
2023-07-18T02:43:13.882Z,17.39